UAL2055 KORD-KBNA
Flight info
| Callsign | UAL2055 |
|---|---|
| Flight time | N/A |
| Altitude | 37000 |
| Route | CMSKY CARYN CYBIL TONES RYYMN3 |
| Aircraft | A319/M-SDE3FGHIRWY/LB1 |
Departure
| Time | 2026-05-06 14:33 |
|---|---|
| Airport | Chicago O'Hare International Airport (KORD) |
Arrival
| Time | N/A |
|---|---|
| Airport | Nashville International Airport (KBNA) |
| Time | Latitude | Longitude | Altitude | Speed | Heading |
|---|---|---|---|---|---|
| 2026-05-06 14:06 | 41.97831 | -87.90743 | 669 ft | 0 kts | 99° |
| 2026-05-06 14:21 | 41.97832 | -87.90753 | 669 ft | 3 kts | 99° |
| 2026-05-06 14:21 | 41.97836 | -87.90778 | 666 ft | 3 kts | 99° |
| 2026-05-06 14:21 | 41.97836 | -87.90802 | 666 ft | 3 kts | 126° |
| 2026-05-06 14:22 | 41.97848 | -87.90822 | 668 ft | 3 kts | 129° |
| 2026-05-06 14:22 | 41.97858 | -87.90838 | 667 ft | 0 kts | 129° |
| 2026-05-06 14:25 | 41.97852 | -87.90834 | 669 ft | 2 kts | 150° |
| 2026-05-06 14:25 | 41.97825 | -87.90831 | 669 ft | 6 kts | 184° |
| 2026-05-06 14:25 | 41.97776 | -87.90842 | 669 ft | 9 kts | 190° |
| 2026-05-06 14:25 | 41.97707 | -87.90859 | 669 ft | 12 kts | 189° |
| 2026-05-06 14:26 | 41.97617 | -87.90878 | 669 ft | 14 kts | 189° |
| 2026-05-06 14:26 | 41.97552 | -87.90929 | 669 ft | 10 kts | 251° |
| 2026-05-06 14:26 | 41.97525 | -87.91031 | 669 ft | 13 kts | 249° |
| 2026-05-06 14:26 | 41.97453 | -87.91021 | 669 ft | 14 kts | 140° |
| 2026-05-06 14:27 | 41.97371 | -87.90925 | 669 ft | 17 kts | 137° |
| 2026-05-06 14:27 | 41.97280 | -87.90805 | 669 ft | 20 kts | 133° |
| 2026-05-06 14:27 | 41.97219 | -87.90632 | 669 ft | 22 kts | 97° |
| 2026-05-06 14:27 | 41.97206 | -87.90412 | 669 ft | 25 kts | 92° |
| 2026-05-06 14:28 | 41.97205 | -87.90165 | 669 ft | 28 kts | 90° |
| 2026-05-06 14:28 | 41.97205 | -87.89978 | 669 ft | 18 kts | 89° |
| 2026-05-06 14:28 | 41.97241 | -87.89805 | 669 ft | 18 kts | 61° |
| 2026-05-06 14:28 | 41.97285 | -87.89699 | 669 ft | 14 kts | 60° |
| 2026-05-06 14:29 | 41.97274 | -87.89587 | 669 ft | 15 kts | 143° |
| 2026-05-06 14:29 | 41.97196 | -87.89480 | 668 ft | 17 kts | 102° |
| 2026-05-06 14:29 | 41.97194 | -87.89304 | 669 ft | 20 kts | 90° |
| 2026-05-06 14:29 | 41.97195 | -87.89104 | 669 ft | 23 kts | 90° |
| 2026-05-06 14:30 | 41.97195 | -87.88880 | 669 ft | 25 kts | 89° |
| 2026-05-06 14:30 | 41.97195 | -87.88633 | 669 ft | 28 kts | 90° |
| 2026-05-06 14:30 | 41.97196 | -87.88355 | 669 ft | 31 kts | 90° |
| 2026-05-06 14:30 | 41.97196 | -87.88114 | 669 ft | 11 kts | 90° |
| 2026-05-06 14:31 | 41.97156 | -87.88034 | 669 ft | 13 kts | 175° |
| 2026-05-06 14:31 | 41.97060 | -87.88037 | 670 ft | 15 kts | 180° |
| 2026-05-06 14:31 | 41.96969 | -87.88011 | 672 ft | 8 kts | 171° |
| 2026-05-06 14:31 | 41.96950 | -87.88025 | 672 ft | 0 kts | 224° |
| 2026-05-06 14:32 | 41.96925 | -87.88056 | 669 ft | 25 kts | 222° |
| 2026-05-06 14:32 | 41.96620 | -87.88418 | 667 ft | 91 kts | 221° |
| 2026-05-06 14:32 | 41.95995 | -87.89158 | 671 ft | 148 kts | 221° |
| 2026-05-06 14:32 | 41.95161 | -87.90135 | 1087 ft | 162 kts | 219° |
| 2026-05-06 14:33 | 41.94139 | -87.90636 | 1835 ft | 163 kts | 182° |
| 2026-05-06 14:33 | 41.92963 | -87.90518 | 2433 ft | 175 kts | 175° |
| 2026-05-06 14:33 | 41.91652 | -87.90392 | 2763 ft | 202 kts | 178° |
| 2026-05-06 14:33 | 41.90156 | -87.90291 | 3206 ft | 229 kts | 179° |
| 2026-05-06 14:34 | 41.88495 | -87.90203 | 3859 ft | 254 kts | 179° |
| 2026-05-06 14:34 | 41.86676 | -87.90113 | 4735 ft | 267 kts | 180° |
| 2026-05-06 14:34 | 41.84796 | -87.90018 | 5848 ft | 272 kts | 180° |